createdAt,value
2023-05-05T00:00:51.694Z,70.09
2023-05-05T00:01:53.212Z,70.93
2023-05-05T00:02:54.818Z,70.27
2023-05-05T00:03:56.336Z,70.11
2023-05-05T00:04:57.747Z,70.94
2023-05-05T00:05:59.182Z,70.73
2023-05-05T00:07:00.796Z,70.43
2023-05-05T00:08:02.384Z,71.43
2023-05-05T00:09:03.870Z,71.18
2023-05-05T00:10:06.313Z,71.29
2023-05-05T00:11:08.015Z,70.99
2023-05-05T00:12:09.469Z,72.03
2023-05-05T00:13:11.590Z,71.74
2023-05-05T00:14:13.295Z,71.83
2023-05-05T00:15:14.716Z,72.25
2023-05-05T00:16:16.161Z,72.25
2023-05-05T00:17:17.703Z,71.42
2023-05-05T00:18:19.589Z,71.94
2023-05-05T00:19:21.093Z,71.58
2023-05-05T00:20:25.575Z,71.85
2023-05-05T00:21:27.830Z,72.16
2023-05-05T00:22:29.265Z,72.41
2023-05-05T00:23:30.765Z,72.75
2023-05-05T00:24:32.183Z,71.87
2023-05-05T00:25:33.611Z,72.55
2023-05-05T00:26:35.111Z,73.02
2023-05-05T00:27:37.936Z,73.02
2023-05-05T00:28:40.930Z,72.83
2023-05-05T00:29:42.346Z,73.18
2023-05-05T00:30:43.868Z,74.48
2023-05-05T00:31:45.289Z,73.60
2023-05-05T00:32:50.669Z,73.54
2023-05-05T00:33:52.375Z,73.41
2023-05-05T00:34:53.755Z,72.17
2023-05-05T00:35:55.198Z,74.07
2023-05-05T00:36:56.716Z,73.20
2023-05-05T00:37:58.349Z,73.25
2023-05-05T00:38:59.840Z,74.00
2023-05-05T00:40:01.317Z,73.57
2023-05-05T00:41:02.907Z,73.38
2023-05-05T00:42:04.335Z,73.95
2023-05-05T00:43:05.920Z,72.82
2023-05-05T00:44:07.371Z,73.38
2023-05-05T00:45:10.419Z,73.25
2023-05-05T00:46:33.770Z,73.51
2023-05-05T00:47:35.936Z,73.65
2023-05-05T00:48:37.391Z,73.99
2023-05-05T00:49:39.551Z,74.49
2023-05-05T00:50:43.113Z,74.97
2023-05-05T00:51:44.545Z,74.25
2023-05-05T00:52:46.270Z,74.91
2023-05-05T00:53:48.770Z,73.87
2023-05-05T00:54:50.281Z,74.50
2023-05-05T00:55:52.021Z,73.54
2023-05-05T00:56:53.601Z,73.44
2023-05-05T00:57:55.943Z,74.67
2023-05-05T00:58:58.377Z,74.98
2023-05-05T01:00:01.297Z,75.35
2023-05-05T01:01:02.955Z,74.60
2023-05-05T01:02:04.824Z,74.09
2023-05-05T01:03:06.371Z,74.54
2023-05-05T01:04:07.951Z,74.67
2023-05-05T01:05:10.774Z,76.07
2023-05-05T01:06:53.750Z,75.52
2023-05-05T01:08:23.552Z,75.70
2023-05-05T01:09:36.836Z,76.11
2023-05-05T01:10:48.624Z,75.65
2023-05-05T01:12:10.389Z,75.06
2023-05-05T01:13:17.910Z,75.67
2023-05-05T01:14:27.729Z,75.76
2023-05-05T01:15:37.596Z,75.95
2023-05-05T01:16:45.441Z,75.77
2023-05-05T01:17:55.864Z,76.33
2023-05-05T01:19:45.294Z,76.39
2023-05-05T01:20:55.383Z,76.48
2023-05-05T01:22:01.381Z,75.68
2023-05-05T01:23:07.309Z,76.03
2023-05-05T01:24:34.270Z,75.60
2023-05-05T01:26:13.513Z,76.77
2023-05-05T01:27:37.243Z,76.39
2023-05-05T01:29:02.964Z,76.76
2023-05-05T01:30:32.353Z,76.62
2023-05-05T01:31:43.900Z,77.01
2023-05-05T01:32:50.998Z,77.10
2023-05-05T01:34:01.564Z,76.52
2023-05-05T01:35:19.496Z,75.63
2023-05-05T01:36:28.467Z,77.48
2023-05-05T01:37:36.861Z,77.85
2023-05-05T01:38:41.125Z,76.54
2023-05-05T01:39:44.722Z,76.82
2023-05-05T01:40:52.703Z,77.59
2023-05-05T01:41:57.001Z,77.92
2023-05-05T01:43:01.660Z,77.85
2023-05-05T01:44:05.726Z,77.14
2023-05-05T01:45:09.381Z,78.25
2023-05-05T01:46:13.210Z,77.39
2023-05-05T01:47:18.316Z,77.04
2023-05-05T01:48:20.999Z,77.12
2023-05-05T01:49:23.088Z,77.52
2023-05-05T01:50:28.030Z,77.23
2023-05-05T01:51:30.333Z,76.64
2023-05-05T01:52:32.638Z,75.78
2023-05-05T01:53:36.303Z,78.43
2023-05-05T01:54:40.120Z,77.59
2023-05-05T01:55:43.056Z,78.34
2023-05-05T01:56:45.642Z,77.73
2023-05-05T01:57:49.050Z,76.26
2023-05-05T01:58:52.851Z,77.26
2023-05-05T01:59:55.519Z,77.09
2023-05-05T02:00:57.879Z,77.44
2023-05-05T02:02:02.761Z,77.87
2023-05-05T02:03:06.471Z,78.10
2023-05-05T02:04:11.912Z,78.04
2023-05-05T02:05:14.165Z,77.40
2023-05-05T02:06:18.305Z,77.45
2023-05-05T02:07:21.636Z,77.78
2023-05-05T02:08:25.945Z,78.22
2023-05-05T02:09:29.172Z,77.25
2023-05-05T02:10:31.106Z,77.23
2023-05-05T02:11:32.751Z,77.47
2023-05-05T02:12:37.220Z,77.98
2023-05-05T02:13:42.414Z,78.29
2023-05-05T02:14:44.672Z,77.26
2023-05-05T02:15:47.206Z,77.85
2023-05-05T02:16:50.548Z,78.18
2023-05-05T02:17:53.021Z,78.11
2023-05-05T02:18:55.620Z,77.37
2023-05-05T02:19:59.141Z,77.61
2023-05-05T02:21:00.571Z,76.58
2023-05-05T02:22:02.972Z,77.34
2023-05-05T02:23:06.465Z,77.71
2023-05-05T02:24:08.702Z,77.18
2023-05-05T02:25:10.631Z,78.25
2023-05-05T02:26:14.468Z,76.89
2023-05-05T02:27:18.907Z,78.10
2023-05-05T02:28:27.699Z,79.06
2023-05-05T02:29:34.264Z,78.11
2023-05-05T02:30:37.810Z,78.13
2023-05-05T02:31:45.732Z,77.98
2023-05-05T02:32:50.707Z,78.64
2023-05-05T02:33:54.842Z,77.42
2023-05-05T02:34:58.777Z,78.94
2023-05-05T02:36:16.476Z,77.99
2023-05-05T02:37:23.177Z,78.35
2023-05-05T02:38:29.317Z,78.46
2023-05-05T02:39:36.689Z,77.45
2023-05-05T02:40:41.931Z,78.08
2023-05-05T02:41:46.504Z,77.38
2023-05-05T02:42:48.327Z,78.37
2023-05-05T02:43:52.225Z,79.38
2023-05-05T02:44:57.586Z,79.37
2023-05-05T02:45:58.979Z,78.58
2023-05-05T02:47:05.040Z,78.51
2023-05-05T02:48:06.725Z,78.06
2023-05-05T02:49:08.181Z,78.02
2023-05-05T02:50:10.565Z,77.32
2023-05-05T02:51:12.256Z,77.72
2023-05-05T02:52:14.409Z,78.31
2023-05-05T02:53:16.241Z,77.66
2023-05-05T02:54:17.714Z,77.47
2023-05-05T02:55:19.400Z,78.54
2023-05-05T02:56:38.656Z,77.63
2023-05-05T02:58:06.633Z,79.63
2023-05-05T02:59:41.746Z,78.88
2023-05-05T03:00:53.532Z,79.04
2023-05-05T03:02:15.641Z,79.25
2023-05-05T03:03:30.676Z,79.82
2023-05-05T03:04:39.903Z,79.76
2023-05-05T03:05:45.851Z,79.19
2023-05-05T03:06:49.109Z,79.96
2023-05-05T03:08:03.938Z,79.30
2023-05-05T03:09:26.802Z,78.86
2023-05-05T03:10:36.353Z,79.26
2023-05-05T03:11:49.861Z,80.09
2023-05-05T03:12:58.312Z,79.49
2023-05-05T03:14:08.886Z,79.37
2023-05-05T03:15:11.102Z,80.40
2023-05-05T03:16:15.129Z,80.51
2023-05-05T03:17:18.286Z,79.82
2023-05-05T03:18:22.420Z,79.58
2023-05-05T03:19:25.662Z,80.40
2023-05-05T03:20:27.465Z,80.41
2023-05-05T03:21:29.263Z,80.14
2023-05-05T03:22:31.127Z,79.88
2023-05-05T03:23:32.963Z,79.84
2023-05-05T03:24:34.402Z,79.67
2023-05-05T03:26:01.843Z,80.46
2023-05-05T03:27:03.324Z,80.05
2023-05-05T03:28:04.778Z,80.25
2023-05-05T03:29:06.764Z,79.95
2023-05-05T03:30:08.546Z,79.33
2023-05-05T03:31:10.979Z,80.10
2023-05-05T03:32:12.529Z,79.94
2023-05-05T03:33:14.045Z,79.10
2023-05-05T03:34:15.515Z,79.65
2023-05-05T03:35:17.074Z,78.92
2023-05-05T03:36:18.487Z,79.68
2023-05-05T03:37:19.887Z,79.07
2023-05-05T03:38:21.268Z,80.83
2023-05-05T03:39:23.649Z,79.61
2023-05-05T03:40:36.273Z,79.93
2023-05-05T03:41:44.754Z,80.05
2023-05-05T03:42:46.200Z,79.90
2023-05-05T03:43:47.613Z,80.14
2023-05-05T03:44:49.092Z,79.46
2023-05-05T03:45:50.591Z,80.08
2023-05-05T03:46:52.088Z,79.51
2023-05-05T03:47:53.510Z,80.26
2023-05-05T03:48:57.105Z,80.27
2023-05-05T03:49:58.589Z,80.51
2023-05-05T03:51:00.293Z,80.03
2023-05-05T03:52:01.846Z,80.46
2023-05-05T03:53:03.478Z,79.68
2023-05-05T03:54:04.981Z,79.52
2023-05-05T03:55:06.951Z,80.04
2023-05-05T03:56:08.317Z,79.33
2023-05-05T03:57:09.746Z,80.62
2023-05-05T03:58:11.230Z,79.78
2023-05-05T03:59:12.657Z,80.19
2023-05-05T04:00:15.128Z,79.75
2023-05-05T04:01:16.661Z,79.31
2023-05-05T04:02:18.940Z,79.76
2023-05-05T04:03:20.731Z,80.08
2023-05-05T04:04:22.531Z,79.46
2023-05-05T04:05:24.280Z,79.15
2023-05-05T04:06:26.286Z,79.08
2023-05-05T04:07:27.664Z,79.99
2023-05-05T04:08:29.090Z,79.92
2023-05-05T04:09:30.581Z,79.66
2023-05-05T04:10:32.122Z,80.24
2023-05-05T04:11:33.562Z,80.94
2023-05-05T04:12:35.047Z,79.92
2023-05-05T04:13:36.721Z,79.25
2023-05-05T04:14:38.304Z,80.14
2023-05-05T04:15:44.794Z,80.00
2023-05-05T04:16:46.242Z,80.12
2023-05-05T04:17:47.735Z,79.21
2023-05-05T04:18:49.684Z,79.54
2023-05-05T04:19:51.146Z,79.43
2023-05-05T04:20:52.570Z,79.15
2023-05-05T04:21:54.075Z,79.69
2023-05-05T04:22:55.522Z,79.32
2023-05-05T04:23:57.730Z,79.32
2023-05-05T04:24:59.184Z,79.80
2023-05-05T04:26:01.740Z,78.38
2023-05-05T04:27:03.257Z,79.58
2023-05-05T04:28:05.181Z,78.29
2023-05-05T04:29:06.753Z,78.93
2023-05-05T04:30:09.937Z,78.76
2023-05-05T04:31:11.569Z,78.11
2023-05-05T04:32:13.021Z,77.34
2023-05-05T04:33:14.476Z,77.69
2023-05-05T04:34:15.931Z,77.29
2023-05-05T04:35:17.449Z,77.26
2023-05-05T04:36:19.157Z,76.92
2023-05-05T04:37:20.561Z,76.99
2023-05-05T04:38:22.042Z,76.58
2023-05-05T04:39:23.555Z,76.28
2023-05-05T04:40:26.199Z,76.76
2023-05-05T04:41:28.923Z,76.53
2023-05-05T04:42:31.584Z,76.11
2023-05-05T04:43:33.001Z,75.02
2023-05-05T04:44:34.848Z,75.60
2023-05-05T04:45:36.266Z,75.00
2023-05-05T04:46:37.656Z,75.02
2023-05-05T04:47:40.174Z,74.81
2023-05-05T04:48:41.726Z,75.44
2023-05-05T04:49:43.202Z,74.24
2023-05-05T04:50:44.602Z,73.03
2023-05-05T04:51:46.661Z,72.76
2023-05-05T04:52:48.120Z,72.64
2023-05-05T04:53:49.551Z,72.67
2023-05-05T04:54:50.981Z,71.45
2023-05-05T04:55:52.412Z,71.79
2023-05-05T04:56:54.118Z,71.38
2023-05-05T04:57:55.599Z,72.25
2023-05-05T04:58:57.003Z,70.94
2023-05-05T04:59:59.516Z,71.03
2023-05-05T05:01:00.972Z,71.63
2023-05-05T05:02:02.777Z,71.59
2023-05-05T05:03:04.792Z,71.05
2023-05-05T05:04:06.658Z,70.39
2023-05-05T05:05:09.452Z,71.33
2023-05-05T05:06:10.926Z,70.46
2023-05-05T05:07:14.687Z,70.84
2023-05-05T05:08:17.089Z,70.49
2023-05-05T05:09:18.472Z,70.00
2023-05-05T05:10:20.123Z,69.30
2023-05-05T05:11:22.054Z,68.17
2023-05-05T05:12:23.527Z,67.68
2023-05-05T05:13:25.237Z,67.24
2023-05-05T05:14:28.095Z,66.75
2023-05-05T05:15:29.514Z,66.03
2023-05-05T05:16:31.016Z,64.44
2023-05-05T05:17:32.738Z,64.48
2023-05-05T05:18:34.185Z,64.46
2023-05-05T05:19:35.751Z,64.30
2023-05-05T05:20:37.289Z,63.67
2023-05-05T05:21:38.733Z,63.09
2023-05-05T05:22:40.950Z,63.70
2023-05-05T05:23:42.412Z,63.91
2023-05-05T05:24:43.840Z,62.89
2023-05-05T05:25:45.892Z,63.59
2023-05-05T05:26:47.204Z,62.94
2023-05-05T05:28:02.024Z,63.56
2023-05-05T05:29:10.145Z,62.37
2023-05-05T05:30:11.962Z,62.51
2023-05-05T05:31:13.404Z,63.16
2023-05-05T05:32:15.332Z,61.97
2023-05-05T05:33:16.730Z,61.79
2023-05-05T05:34:18.138Z,62.50
2023-05-05T05:35:19.549Z,62.16
2023-05-05T05:36:20.987Z,61.23
2023-05-05T05:37:22.431Z,62.39
2023-05-05T05:38:23.983Z,62.12
2023-05-05T05:39:25.390Z,62.80
2023-05-05T05:40:26.876Z,63.66
2023-05-05T05:41:28.309Z,62.65
2023-05-05T05:42:29.712Z,62.99
2023-05-05T05:43:31.192Z,62.51
2023-05-05T05:44:32.776Z,61.43
2023-05-05T05:45:34.192Z,61.95
2023-05-05T05:46:36.063Z,61.73
2023-05-05T05:47:37.586Z,61.41
2023-05-05T05:48:39.212Z,61.96
2023-05-05T05:49:41.297Z,61.98
2023-05-05T05:50:43.066Z,62.59
2023-05-05T05:51:44.510Z,61.85
2023-05-05T05:52:48.279Z,61.06
2023-05-05T05:53:49.724Z,61.73
2023-05-05T05:54:51.152Z,61.54
2023-05-05T05:55:52.618Z,60.65
2023-05-05T05:56:54.108Z,60.05
2023-05-05T05:57:55.520Z,60.11
2023-05-05T05:58:56.958Z,59.76
2023-05-05T06:00:00.414Z,60.29
2023-05-05T06:01:04.867Z,59.78
2023-05-05T06:02:07.171Z,60.37
2023-05-05T06:03:08.672Z,58.49
2023-05-05T06:04:10.228Z,58.38
2023-05-05T06:05:12.915Z,59.27
2023-05-05T06:06:14.380Z,58.23
2023-05-05T06:07:15.895Z,58.83
2023-05-05T06:08:17.332Z,58.20
2023-05-05T06:09:21.961Z,57.46
2023-05-05T06:10:28.084Z,57.50
2023-05-05T06:11:30.114Z,57.42
2023-05-05T06:12:31.671Z,56.30
2023-05-05T06:13:33.095Z,57.73
2023-05-05T06:14:34.729Z,58.47
2023-05-05T06:15:36.183Z,57.23
2023-05-05T06:16:37.693Z,58.57
2023-05-05T06:17:39.154Z,58.15
2023-05-05T06:18:40.980Z,57.27
2023-05-05T06:19:43.340Z,57.40
2023-05-05T06:20:44.905Z,56.68
2023-05-05T06:21:46.346Z,56.28
2023-05-05T06:22:48.020Z,56.34
2023-05-05T06:23:49.519Z,55.71
2023-05-05T06:24:50.924Z,56.18
2023-05-05T06:25:53.998Z,55.58
2023-05-05T06:26:55.454Z,54.57
2023-05-05T06:27:56.884Z,54.69
2023-05-05T06:28:58.344Z,55.32
2023-05-05T06:29:59.715Z,54.63
2023-05-05T06:31:01.246Z,53.70
2023-05-05T06:32:02.672Z,54.31
2023-05-05T06:33:04.115Z,54.16
2023-05-05T06:34:05.760Z,55.06
2023-05-05T06:35:07.651Z,54.18
2023-05-05T06:36:09.106Z,55.02
2023-05-05T06:37:11.070Z,54.86
2023-05-05T06:38:13.095Z,54.94
2023-05-05T06:39:16.050Z,54.74
2023-05-05T06:40:17.815Z,55.33
2023-05-05T06:41:19.531Z,55.05
2023-05-05T06:42:21.130Z,56.20
2023-05-05T06:43:22.558Z,55.15
2023-05-05T06:44:23.977Z,55.24
2023-05-05T06:45:25.822Z,54.31
2023-05-05T06:46:27.226Z,55.85
2023-05-05T06:47:28.705Z,56.18
2023-05-05T06:48:30.174Z,56.08
2023-05-05T06:49:31.593Z,55.53
2023-05-05T06:50:33.214Z,53.75
2023-05-05T06:51:35.412Z,54.61
2023-05-05T06:52:36.891Z,55.11
2023-05-05T06:53:38.400Z,53.96
2023-05-05T06:54:39.843Z,53.24
2023-05-05T06:55:46.171Z,53.47
2023-05-05T06:56:47.657Z,54.95
2023-05-05T06:57:49.233Z,53.91
2023-05-05T06:58:50.649Z,54.46
2023-05-05T06:59:53.889Z,54.90
2023-05-05T07:00:55.441Z,54.59
2023-05-05T07:01:56.980Z,54.76
2023-05-05T07:02:58.431Z,54.86
2023-05-05T07:04:00.211Z,54.51
2023-05-05T07:05:01.890Z,54.35
2023-05-05T07:06:03.579Z,54.53
2023-05-05T07:07:04.975Z,54.10
2023-05-05T07:08:06.515Z,54.47
2023-05-05T07:09:07.977Z,55.13
2023-05-05T07:10:09.667Z,54.43
2023-05-05T07:11:11.384Z,55.21
2023-05-05T07:12:12.816Z,56.34
2023-05-05T07:13:16.315Z,54.25
2023-05-05T07:14:17.866Z,53.94
2023-05-05T07:15:27.588Z,54.14
2023-05-05T07:16:30.569Z,53.67
2023-05-05T07:17:32.212Z,53.57
2023-05-05T07:18:33.739Z,53.44
2023-05-05T07:19:35.195Z,53.17
2023-05-05T07:20:36.594Z,52.55
2023-05-05T07:21:41.484Z,51.87
2023-05-05T07:22:42.944Z,53.27
2023-05-05T07:23:46.143Z,53.26
2023-05-05T07:24:49.124Z,52.92
2023-05-05T07:25:51.568Z,53.05
2023-05-05T07:26:53.209Z,52.95
2023-05-05T07:27:54.666Z,53.21
2023-05-05T07:28:57.264Z,52.22
2023-05-05T07:29:58.974Z,52.46
2023-05-05T07:31:00.380Z,51.11
2023-05-05T07:32:01.883Z,52.44
2023-05-05T07:33:03.726Z,52.00
2023-05-05T07:34:05.183Z,51.91
2023-05-05T07:35:07.110Z,52.04
2023-05-05T07:36:08.545Z,51.21
2023-05-05T07:37:09.971Z,52.77
2023-05-05T07:38:11.526Z,51.82
2023-05-05T07:39:15.010Z,50.00
2023-05-05T07:40:16.513Z,51.79
2023-05-05T07:41:18.456Z,51.40
2023-05-05T07:42:21.022Z,51.52
2023-05-05T07:43:22.433Z,51.08
2023-05-05T07:44:23.874Z,52.78
2023-05-05T07:45:25.511Z,51.65
2023-05-05T07:46:27.123Z,52.24
2023-05-05T07:47:28.640Z,49.87
2023-05-05T07:48:30.218Z,50.83
2023-05-05T07:49:31.939Z,51.25
2023-05-05T07:50:33.410Z,51.91
2023-05-05T07:51:35.053Z,50.58
2023-05-05T07:52:46.535Z,50.09
2023-05-05T07:53:53.080Z,51.70
2023-05-05T07:54:54.524Z,49.80
2023-05-05T07:55:56.001Z,51.34
2023-05-05T07:56:57.495Z,52.70
2023-05-05T07:57:58.899Z,51.88
2023-05-05T07:59:00.310Z,52.29
2023-05-05T08:00:01.908Z,49.97
2023-05-05T08:01:06.449Z,50.98
2023-05-05T08:02:07.978Z,52.55
2023-05-05T08:03:11.631Z,53.18
2023-05-05T08:04:13.892Z,50.78
2023-05-05T08:05:16.474Z,49.54
2023-05-05T08:06:21.953Z,50.71
2023-05-05T08:07:23.440Z,51.90
2023-05-05T08:08:25.270Z,52.17
2023-05-05T08:09:26.640Z,52.63
2023-05-05T08:10:28.077Z,48.25
2023-05-05T08:11:29.694Z,48.47
2023-05-05T08:12:31.164Z,48.57
2023-05-05T08:13:32.620Z,49.00
2023-05-05T08:14:34.137Z,50.11
2023-05-05T08:15:35.648Z,50.42
2023-05-05T08:16:37.125Z,50.50
2023-05-05T08:17:50.055Z,49.26
2023-05-05T08:18:52.260Z,49.78
2023-05-05T08:19:53.701Z,50.22
2023-05-05T08:20:55.119Z,48.62
2023-05-05T08:21:56.595Z,49.30
2023-05-05T08:22:58.078Z,47.93
2023-05-05T08:23:59.478Z,47.13
2023-05-05T08:25:02.039Z,48.28
2023-05-05T08:26:06.164Z,48.57
2023-05-05T08:27:07.635Z,47.06
2023-05-05T08:28:09.032Z,47.79
2023-05-05T08:29:10.428Z,48.46
2023-05-05T08:30:12.414Z,48.07
2023-05-05T08:31:13.886Z,47.48
2023-05-05T08:32:16.366Z,47.39
2023-05-05T08:33:18.209Z,48.81
2023-05-05T08:34:19.935Z,48.13
2023-05-05T08:35:24.546Z,49.36
2023-05-05T08:36:27.238Z,47.49
2023-05-05T08:37:29.334Z,48.18
2023-05-05T08:38:30.908Z,47.37
2023-05-05T08:39:32.329Z,47.32
2023-05-05T08:40:37.688Z,47.01
2023-05-05T08:41:39.173Z,46.85
2023-05-05T08:42:41.974Z,47.00
2023-05-05T08:43:47.499Z,49.05
2023-05-05T08:44:48.972Z,47.85
2023-05-05T08:45:53.722Z,47.87
2023-05-05T08:46:56.128Z,47.67
2023-05-05T08:48:01.231Z,45.78
2023-05-05T08:49:05.398Z,45.98
2023-05-05T08:50:10.355Z,47.13
2023-05-05T08:51:19.573Z,45.91
2023-05-05T08:52:28.645Z,46.70
2023-05-05T08:53:41.530Z,47.62
2023-05-05T08:54:50.794Z,46.69
2023-05-05T08:55:56.044Z,46.43
2023-05-05T08:57:02.048Z,46.76
2023-05-05T08:58:04.195Z,48.21
2023-05-05T08:59:06.828Z,45.75
2023-05-05T09:00:10.837Z,45.85
2023-05-05T09:01:14.007Z,46.09
2023-05-05T09:02:16.230Z,45.72
2023-05-05T09:03:18.168Z,46.19
2023-05-05T09:04:19.968Z,47.71
2023-05-05T09:05:25.467Z,45.38
2023-05-05T09:06:27.441Z,45.03
2023-05-05T09:07:29.030Z,46.55
2023-05-05T09:08:31.995Z,46.48
2023-05-05T09:09:33.567Z,46.89
2023-05-05T09:10:36.519Z,45.99
2023-05-05T09:11:39.093Z,46.80
2023-05-05T09:12:41.638Z,44.58
2023-05-05T09:13:43.510Z,44.39
2023-05-05T09:14:45.969Z,45.80
2023-05-05T09:15:47.423Z,44.10
2023-05-05T09:16:48.908Z,44.44
2023-05-05T09:17:50.652Z,44.43
2023-05-05T09:19:01.161Z,44.80
2023-05-05T09:20:07.558Z,45.47
2023-05-05T09:21:25.952Z,45.01
2023-05-05T09:22:43.853Z,44.89
2023-05-05T09:24:23.904Z,44.13
2023-05-05T09:25:25.326Z,44.44
2023-05-05T09:26:26.860Z,45.41
2023-05-05T09:27:28.361Z,44.12
2023-05-05T09:28:29.970Z,42.87
2023-05-05T09:29:31.429Z,45.00
2023-05-05T09:30:34.596Z,43.94
2023-05-05T09:31:37.158Z,43.93
2023-05-05T09:32:51.566Z,44.23
2023-05-05T09:33:53.062Z,43.35
2023-05-05T09:34:58.876Z,43.06
2023-05-05T09:36:00.371Z,45.29
2023-05-05T09:37:01.948Z,42.65
2023-05-05T09:38:12.851Z,44.17
2023-05-05T09:39:16.572Z,43.57
2023-05-05T09:40:19.611Z,42.91
2023-05-05T09:41:37.291Z,43.60
2023-05-05T09:42:39.848Z,44.09
2023-05-05T09:43:51.967Z,42.28
2023-05-05T09:44:54.172Z,40.62
2023-05-05T09:46:08.269Z,42.52
2023-05-05T09:47:21.986Z,41.38
2023-05-05T09:48:32.225Z,42.29
2023-05-05T09:49:33.816Z,41.82
2023-05-05T09:50:44.708Z,41.37
2023-05-05T09:51:47.523Z,41.69
2023-05-05T09:52:56.007Z,41.83
2023-05-05T09:53:57.669Z,40.41
2023-05-05T09:54:59.246Z,41.16
2023-05-05T09:56:01.013Z,42.86
2023-05-05T09:57:02.505Z,40.98
2023-05-05T09:58:20.582Z,40.71
2023-05-05T09:59:23.024Z,39.76
2023-05-05T10:00:38.519Z,41.58
2023-05-05T10:01:42.372Z,39.98
2023-05-05T10:02:43.880Z,39.97
2023-05-05T10:03:54.315Z,39.79
2023-05-05T10:05:13.955Z,41.04
2023-05-05T10:06:15.540Z,41.64
2023-05-05T10:07:24.455Z,40.23
2023-05-05T10:08:29.276Z,39.19
2023-05-05T10:09:33.812Z,42.15
2023-05-05T10:10:35.368Z,38.25
2023-05-05T10:11:36.934Z,39.06
2023-05-05T10:12:39.272Z,39.35
2023-05-05T10:13:41.945Z,39.13
2023-05-05T10:14:43.664Z,39.37
2023-05-05T10:15:47.042Z,39.28
2023-05-05T10:16:53.579Z,39.29
2023-05-05T10:18:07.042Z,39.99
2023-05-05T10:19:14.146Z,39.36
2023-05-05T10:20:16.087Z,39.68
2023-05-05T10:21:21.753Z,38.75
2023-05-05T10:22:24.960Z,38.63
2023-05-05T10:23:45.395Z,38.71
2023-05-05T10:25:10.147Z,38.74
2023-05-05T10:26:14.061Z,38.78
2023-05-05T10:27:19.560Z,39.70
2023-05-05T10:28:32.562Z,38.52
2023-05-05T10:29:33.916Z,39.01
2023-05-05T10:30:40.462Z,38.62
2023-05-05T10:31:47.794Z,38.49
2023-05-05T10:33:12.262Z,38.07
2023-05-05T10:34:30.841Z,38.04
2023-05-05T10:35:36.565Z,38.06
2023-05-05T10:36:38.626Z,37.66
2023-05-05T10:37:41.366Z,38.91
2023-05-05T10:38:43.078Z,38.39
2023-05-05T10:39:45.520Z,38.46
2023-05-05T10:40:48.804Z,38.51
2023-05-05T10:41:52.079Z,37.65
2023-05-05T10:42:54.218Z,37.34
2023-05-05T10:43:59.575Z,37.31
2023-05-05T10:45:01.871Z,38.18
2023-05-05T10:46:03.656Z,40.32
2023-05-05T10:47:06.219Z,37.07
2023-05-05T10:48:26.528Z,36.36
2023-05-05T10:50:06.556Z,36.50
2023-05-05T10:51:14.179Z,37.25
2023-05-05T10:52:45.494Z,36.84
2023-05-05T10:54:13.794Z,37.24
2023-05-05T10:55:24.306Z,36.18
2023-05-05T10:56:32.660Z,38.60
2023-05-05T10:57:39.231Z,35.79
2023-05-05T10:58:58.436Z,36.29
2023-05-05T11:00:01.516Z,35.59
2023-05-05T11:01:04.476Z,35.86
2023-05-05T11:02:28.318Z,35.66
2023-05-05T11:03:30.216Z,35.61
2023-05-05T11:04:31.623Z,35.60
2023-05-05T11:05:33.311Z,34.53
2023-05-05T11:06:34.731Z,34.64
2023-05-05T11:07:36.978Z,35.25
2023-05-05T11:08:40.626Z,34.65
2023-05-05T11:09:59.233Z,34.00
2023-05-05T11:11:01.394Z,34.37
2023-05-05T11:12:06.998Z,36.27
2023-05-05T11:13:08.429Z,35.30
2023-05-05T11:14:21.181Z,33.02
2023-05-05T11:15:31.795Z,33.81
2023-05-05T11:16:50.446Z,34.14
2023-05-05T11:17:53.591Z,34.15
2023-05-05T11:18:55.117Z,34.64
2023-05-05T11:19:56.551Z,35.60
2023-05-05T11:20:57.945Z,35.05
2023-05-05T11:22:01.041Z,35.30
2023-05-05T11:23:02.413Z,34.42
2023-05-05T11:24:29.146Z,34.94
2023-05-05T11:25:51.674Z,34.63
2023-05-05T11:26:53.117Z,37.78
2023-05-05T11:28:14.905Z,34.86
2023-05-05T11:29:16.348Z,34.76
2023-05-05T11:30:18.606Z,34.00
2023-05-05T11:31:20.219Z,34.20
2023-05-05T11:32:21.752Z,34.44
2023-05-05T11:33:23.963Z,35.27
2023-05-05T11:34:28.916Z,34.13
2023-05-05T11:35:56.380Z,33.61
2023-05-05T11:37:03.052Z,33.36
2023-05-05T11:38:08.071Z,34.46
2023-05-05T11:39:17.511Z,34.72
2023-05-05T11:40:33.528Z,35.11
2023-05-05T11:42:13.889Z,36.26
2023-05-05T11:43:18.925Z,33.34
2023-05-05T11:44:29.774Z,32.67
2023-05-05T11:45:31.296Z,32.44
2023-05-05T11:46:32.790Z,31.52
2023-05-05T11:47:34.500Z,31.95
2023-05-05T11:48:52.708Z,31.57
2023-05-05T11:49:55.464Z,32.37
2023-05-05T11:50:57.985Z,32.48
2023-05-05T11:52:00.357Z,31.84
2023-05-05T11:53:02.183Z,32.35
2023-05-05T11:54:03.473Z,32.00
2023-05-05T11:55:05.333Z,34.24
2023-05-05T11:56:08.504Z,32.87
2023-05-05T11:57:10.130Z,32.02
2023-05-05T11:58:19.088Z,30.38
2023-05-05T11:59:20.648Z,30.83
2023-05-05T12:00:32.298Z,32.74
2023-05-05T12:01:34.064Z,32.27
2023-05-05T12:02:36.157Z,33.83
2023-05-05T12:03:38.950Z,35.53
2023-05-05T12:04:40.482Z,32.67
2023-05-05T12:05:42.099Z,32.78
2023-05-05T12:06:46.551Z,32.66
2023-05-05T12:07:48.142Z,32.11
2023-05-05T12:08:49.664Z,31.98
2023-05-05T12:09:51.160Z,32.31
2023-05-05T12:10:52.665Z,32.92
2023-05-05T12:11:59.621Z,29.93
2023-05-05T12:13:01.637Z,30.28
2023-05-05T12:14:10.493Z,30.84
2023-05-05T12:15:12.088Z,29.96
2023-05-05T12:16:15.635Z,30.83
2023-05-05T12:17:18.508Z,31.41
2023-05-05T12:18:20.745Z,30.01
2023-05-05T12:19:23.054Z,31.01
2023-05-05T12:20:32.728Z,30.53
2023-05-05T12:21:35.682Z,30.70
2023-05-05T12:22:37.796Z,31.77
2023-05-05T12:23:39.296Z,30.54
2023-05-05T12:24:40.742Z,31.09
2023-05-05T12:25:42.180Z,29.69
2023-05-05T12:26:43.691Z,31.90
2023-05-05T12:27:52.231Z,30.84
2023-05-05T12:28:54.123Z,31.18
2023-05-05T12:29:57.089Z,31.05
2023-05-05T12:30:58.835Z,31.12
2023-05-05T12:32:00.481Z,31.40
2023-05-05T12:33:06.984Z,31.31
2023-05-05T12:34:10.599Z,31.27
2023-05-05T12:35:13.258Z,31.94
2023-05-05T12:36:15.327Z,33.15
2023-05-05T12:37:19.105Z,31.68
2023-05-05T12:38:20.651Z,31.31
2023-05-05T12:39:22.331Z,31.47
2023-05-05T12:40:50.120Z,32.03
2023-05-05T12:41:51.614Z,31.71
2023-05-05T12:42:53.698Z,32.09
2023-05-05T12:43:57.093Z,32.26
2023-05-05T12:44:58.646Z,32.49
2023-05-05T12:46:08.892Z,32.49
2023-05-05T12:47:14.195Z,31.00
2023-05-05T12:48:22.332Z,31.24
2023-05-05T12:49:23.792Z,31.34
2023-05-05T12:50:31.839Z,31.31
2023-05-05T12:51:33.964Z,29.55
2023-05-05T12:52:45.397Z,30.23
2023-05-05T12:53:47.992Z,31.20
2023-05-05T12:54:56.405Z,31.52
2023-05-05T12:55:58.215Z,31.05
2023-05-05T12:57:11.089Z,32.48
2023-05-05T12:58:12.616Z,29.86
2023-05-05T12:59:23.077Z,30.27
2023-05-05T13:00:25.285Z,31.23
2023-05-05T13:01:27.799Z,31.22
2023-05-05T13:02:35.665Z,30.80
2023-05-05T13:03:37.286Z,30.61
2023-05-05T13:05:08.725Z,32.38
2023-05-05T13:06:20.582Z,31.34
2023-05-05T13:07:22.255Z,31.36
2023-05-05T13:08:41.453Z,31.75
2023-05-05T13:09:43.367Z,30.77
2023-05-05T13:10:58.344Z,31.27
2023-05-05T13:12:00.049Z,30.71
2023-05-05T13:13:02.377Z,30.31
2023-05-05T13:14:04.550Z,31.98
2023-05-05T13:15:06.624Z,31.31
2023-05-05T13:16:08.237Z,30.94
2023-05-05T13:17:11.131Z,31.82
2023-05-05T13:18:12.672Z,31.56
2023-05-05T13:19:14.279Z,31.24
2023-05-05T13:20:15.742Z,32.34
2023-05-05T13:21:17.140Z,30.99
2023-05-05T13:22:18.550Z,31.65
2023-05-05T13:23:19.946Z,30.25
2023-05-05T13:24:28.574Z,31.51
2023-05-05T13:25:32.897Z,32.16
2023-05-05T13:26:34.719Z,31.79
2023-05-05T13:27:37.770Z,31.77
2023-05-05T13:28:40.106Z,31.30
2023-05-05T13:29:42.316Z,30.26
2023-05-05T13:30:43.753Z,31.22
2023-05-05T13:31:45.780Z,30.95
2023-05-05T13:32:47.349Z,32.48
2023-05-05T13:33:48.831Z,30.02
2023-05-05T13:34:50.503Z,30.20
2023-05-05T13:35:51.896Z,30.45
2023-05-05T13:36:53.350Z,30.55
2023-05-05T13:37:54.822Z,30.60
2023-05-05T13:38:56.277Z,30.15
2023-05-05T13:39:59.324Z,31.25
2023-05-05T13:41:00.927Z,31.28
2023-05-05T13:42:02.716Z,32.17
2023-05-05T13:43:04.027Z,31.04
2023-05-05T13:44:06.710Z,31.74
2023-05-05T13:45:08.700Z,31.01
2023-05-05T13:46:19.594Z,31.52
2023-05-05T13:47:21.715Z,30.70
2023-05-05T13:48:23.213Z,30.91
2023-05-05T13:49:24.711Z,30.46
2023-05-05T13:50:26.133Z,31.03